Time;durP1;ratioP1;P1;durP2;ratioP2;P2;SDS_P1;SDS_P2;PMS_P1;PMS_P2;Temp;Humidity;BMP_temperature;BMP_pressure;BME280_temperature;BME280_humidity;BME280_pressure;Samples;Min_cycle;Max_cycle;Signal;HPM_P1;HPM_P2
2021/05/13 00:00:05;;;;;;;4.50;2.45;;;;;;;;;;339617;158;864811;-64
2021/05/13 00:01:06;;;;;;;5.28;2.46;;;;;;;;;;344431;155;857325;-65
2021/05/13 00:02:08;;;;;;;3.90;2.52;;;;;;;;;;343057;155;858414;-64
2021/05/13 00:03:09;;;;;;;6.48;3.19;;;;;;;;;;343242;155;857522;-64
2021/05/13 00:04:11;;;;;;;6.05;2.79;;;;;;;;;;343286;155;857356;-65
2021/05/13 00:05:13;;;;;;;3.97;2.66;;;;;;;;;;344981;155;859212;-64
2021/05/13 00:06:14;;;;;;;8.35;2.63;;;;;;;;;;345538;152;858921;-64
2021/05/13 00:07:16;;;;;;;8.13;2.48;;;;;;;;;;349522;149;858392;-64
2021/05/13 00:08:17;;;;;;;3.67;2.20;;;;;;;;;;351296;152;860320;-64
2021/05/13 00:09:19;;;;;;;7.39;2.14;;;;;;;;;;351585;149;857531;-64
2021/05/13 00:10:23;;;;;;;4.29;2.49;;;;;;;;;;346608;152;865264;-64
2021/05/13 00:11:29;;;;;;;3.52;1.97;;;;;;;;;;352783;152;857228;-64
2021/05/13 00:12:43;;;;;;;4.02;1.92;;;;;;;;;;346740;153;865443;-64
2021/05/13 00:13:39;;;;;;;4.92;1.81;;;;;;;;;;351462;152;858172;-64
2021/05/13 00:14:40;;;;;;;4.06;2.11;;;;;;;;;;352104;152;857781;-64
2021/05/13 00:15:42;;;;;;;3.10;2.25;;;;;;;;;;349377;152;857475;-64
2021/05/13 00:16:44;;;;;;;3.79;2.16;;;;;;;;;;348809;152;859762;-63
2021/05/13 00:17:45;;;;;;;3.61;1.61;;;;;;;;;;346653;155;865683;-63
2021/05/13 00:18:47;;;;;;;4.66;1.83;;;;;;;;;;344634;154;864671;-64
2021/05/13 00:19:48;;;;;;;5.12;1.75;;;;;;;;;;351878;152;857289;-64
2021/05/13 00:20:50;;;;;;;4.27;1.64;;;;;;;;;;345708;153;857386;-64
2021/05/13 00:21:52;;;;;;;8.09;2.54;;;;;;;;;;346846;153;865023;-64
2021/05/13 00:22:53;;;;;;;8.11;2.44;;;;;;;;;;349244;153;857246;-64
2021/05/13 00:23:55;;;;;;;4.82;1.74;;;;;;;;;;348692;152;857785;-65
2021/05/13 00:24:59;;;;;;;11.76;2.31;;;;;;;;;;350882;153;866694;-64
2021/05/13 00:26:00;;;;;;;6.11;2.24;;;;;;;;;;350541;153;866729;-64
2021/05/13 00:27:03;;;;;;;4.01;1.86;;;;;;;;;;347987;152;858404;-65
2021/05/13 00:28:04;;;;;;;7.55;2.25;;;;;;;;;;352180;153;857348;-64
2021/05/13 00:29:11;;;;;;;16.88;2.62;;;;;;;;;;349313;153;857473;-64
2021/05/13 00:30:15;;;;;;;15.52;3.46;;;;;;;;;;348521;152;865920;-64
2021/05/13 00:31:16;;;;;;;11.16;2.64;;;;;;;;;;350185;153;859288;-64
2021/05/13 00:32:18;;;;;;;14.93;3.42;;;;;;;;;;348572;152;858479;-64
2021/05/13 00:33:20;;;;;;;9.89;2.21;;;;;;;;;;349528;153;857572;-64
2021/05/13 00:34:21;;;;;;;5.00;2.06;;;;;;;;;;351997;153;857276;-64
2021/05/13 00:35:23;;;;;;;8.07;2.07;;;;;;;;;;346744;152;866709;-64
2021/05/13 00:36:27;;;;;;;7.71;1.82;;;;;;;;;;346484;153;858962;-64
2021/05/13 00:37:28;;;;;;;4.97;1.67;;;;;;;;;;346875;153;857767;-64
2021/05/13 00:38:30;;;;;;;3.36;1.67;;;;;;;;;;343857;154;857912;-64
2021/05/13 00:39:32;;;;;;;2.45;1.46;;;;;;;;;;346772;152;859652;-64
2021/05/13 00:40:35;;;;;;;5.09;1.47;;;;;;;;;;347536;152;857591;-64
2021/05/13 00:41:37;;;;;;;11.63;1.83;;;;;;;;;;351681;152;857482;-63
2021/05/13 00:42:38;;;;;;;2.16;1.41;;;;;;;;;;350453;152;857576;-64
2021/05/13 00:43:40;;;;;;;2.39;1.33;;;;;;;;;;346020;154;857308;-64
2021/05/13 00:44:42;;;;;;;4.76;1.62;;;;;;;;;;351386;152;857215;-64
2021/05/13 00:45:44;;;;;;;3.11;1.53;;;;;;;;;;342032;153;858282;-64
2021/05/13 00:46:46;;;;;;;4.18;1.29;;;;;;;;;;341943;155;857360;-64
2021/05/13 00:49:02;;;;;;;4.86;1.54;;;;;;;;;;344771;153;864627;-64
2021/05/13 00:49:58;;;;;;;5.01;1.62;;;;;;;;;;345737;153;858763;-64
2021/05/13 00:51:00;;;;;;;2.87;1.68;;;;;;;;;;345858;155;858907;-65
2021/05/13 00:52:02;;;;;;;1.63;1.18;;;;;;;;;;347729;152;857199;-64
2021/05/13 00:53:04;;;;;;;4.28;2.04;;;;;;;;;;347277;152;857414;-64
2021/05/13 00:54:06;;;;;;;3.58;1.38;;;;;;;;;;348909;152;859516;-64
2021/05/13 00:58:48;;;;;;;4.13;2.01;;;;;;;;;;348906;152;857309;-64
2021/05/13 00:59:57;;;;;;;3.10;1.51;;;;;;;;;;346261;154;857908;-64
2021/05/13 01:01:59;;;;;;;2.79;1.40;;;;;;;;;;351443;150;857822;-63
2021/05/13 01:03:00;;;;;;;2.56;1.61;;;;;;;;;;349652;152;859906;-63
2021/05/13 01:04:02;;;;;;;2.71;1.51;;;;;;;;;;349836;152;865307;-63
2021/05/13 01:05:04;;;;;;;2.76;1.57;;;;;;;;;;351947;152;858662;-63
2021/05/13 01:06:07;;;;;;;1.72;1.43;;;;;;;;;;350063;152;864956;-63
2021/05/13 01:07:10;;;;;;;2.51;1.51;;;;;;;;;;348352;152;857977;-63
2021/05/13 01:08:12;;;;;;;4.05;1.49;;;;;;;;;;347792;152;858200;-62
2021/05/13 01:09:20;;;;;;;4.80;1.62;;;;;;;;;;351012;153;858918;-64
2021/05/13 01:10:17;;;;;;;2.50;1.45;;;;;;;;;;350787;153;864725;-63
2021/05/13 01:11:19;;;;;;;1.99;1.26;;;;;;;;;;354548;149;857925;-63
2021/05/13 01:12:21;;;;;;;1.45;1.31;;;;;;;;;;357768;150;866000;-64
2021/05/13 01:13:25;;;;;;;2.17;1.40;;;;;;;;;;355880;149;858353;-63
2021/05/13 01:14:30;;;;;;;2.92;1.57;;;;;;;;;;356262;150;859019;-64
2021/05/13 01:15:36;;;;;;;3.62;1.82;;;;;;;;;;355332;150;857299;-64
2021/05/13 01:16:48;;;;;;;2.66;1.44;;;;;;;;;;354191;147;859552;-64
2021/05/13 01:18:24;;;;;;;3.42;1.52;;;;;;;;;;356796;150;857172;-63
2021/05/13 01:18:58;;;;;;;3.00;1.59;;;;;;;;;;352553;148;859468;-64
2021/05/13 01:19:59;;;;;;;3.50;1.69;;;;;;;;;;353306;150;857718;-65
2021/05/13 01:21:01;;;;;;;2.79;1.73;;;;;;;;;;352814;150;858952;-65
2021/05/13 01:22:02;;;;;;;2.32;1.74;;;;;;;;;;353002;149;858198;-65
2021/05/13 01:23:07;;;;;;;2.11;1.75;;;;;;;;;;352820;152;864899;-65
2021/05/13 01:24:08;;;;;;;2.86;1.66;;;;;;;;;;352622;147;857186;-63
2021/05/13 01:25:09;;;;;;;4.79;1.68;;;;;;;;;;353019;149;859435;-63
2021/05/13 01:26:14;;;;;;;3.10;1.74;;;;;;;;;;357355;150;857816;-65
2021/05/13 01:27:18;;;;;;;5.92;1.70;;;;;;;;;;356039;150;859119;-66
2021/05/13 01:28:20;;;;;;;3.33;1.59;;;;;;;;;;358289;150;856494;-65
2021/05/13 01:29:22;;;;;;;2.33;1.61;;;;;;;;;;357234;150;857226;-63
2021/05/13 01:30:26;;;;;;;2.12;1.58;;;;;;;;;;355821;149;859417;-66
2021/05/13 01:31:28;;;;;;;2.55;1.76;;;;;;;;;;355816;149;857470;-65
2021/05/13 01:32:30;;;;;;;2.51;1.58;;;;;;;;;;357003;149;857272;-65
2021/05/13 01:33:31;;;;;;;2.39;1.64;;;;;;;;;;355833;150;866553;-65
2021/05/13 01:34:33;;;;;;;12.01;2.61;;;;;;;;;;353994;149;858926;-65
2021/05/13 01:35:34;;;;;;;7.23;1.99;;;;;;;;;;354318;149;859131;-63
2021/05/13 01:36:36;;;;;;;7.71;2.28;;;;;;;;;;358177;150;858051;-63
2021/05/13 01:37:38;;;;;;;6.17;2.05;;;;;;;;;;357206;150;858803;-64
2021/05/13 01:38:40;;;;;;;4.06;1.94;;;;;;;;;;354236;149;859780;-64
2021/05/13 01:39:42;;;;;;;3.19;1.65;;;;;;;;;;354117;150;859400;-64
2021/05/13 01:40:55;;;;;;;2.34;1.74;;;;;;;;;;355929;147;866306;-65
2021/05/13 01:41:56;;;;;;;1.72;1.49;;;;;;;;;;355902;150;866259;-64
2021/05/13 01:42:58;;;;;;;2.72;1.61;;;;;;;;;;352733;150;857404;-64
2021/05/13 01:43:59;;;;;;;3.19;1.80;;;;;;;;;;353545;149;865156;-63
2021/05/13 01:45:01;;;;;;;1.81;1.50;;;;;;;;;;354546;150;857274;-63
2021/05/13 01:46:03;;;;;;;3.82;1.80;;;;;;;;;;354957;147;857232;-63
2021/05/13 01:47:04;;;;;;;3.21;1.73;;;;;;;;;;357966;149;864707;-63
2021/05/13 01:48:06;;;;;;;4.01;1.94;;;;;;;;;;358738;150;857442;-63
2021/05/13 01:49:18;;;;;;;5.23;1.77;;;;;;;;;;353655;149;857464;-64
2021/05/13 01:50:20;;;;;;;3.63;1.94;;;;;;;;;;358948;150;856542;-64
2021/05/13 01:51:21;;;;;;;1.52;1.41;;;;;;;;;;355401;147;859144;-64
2021/05/13 01:52:23;;;;;;;3.43;1.98;;;;;;;;;;354096;149;860817;-64
2021/05/13 01:53:24;;;;;;;2.47;1.94;;;;;;;;;;356356;150;866489;-64
2021/05/13 01:54:27;;;;;;;4.79;2.02;;;;;;;;;;357423;150;858840;-64
2021/05/13 01:55:29;;;;;;;2.51;1.79;;;;;;;;;;353300;150;864956;-64
2021/05/13 01:56:31;;;;;;;3.59;1.89;;;;;;;;;;352503;149;866776;-64
2021/05/13 01:57:32;;;;;;;2.09;1.63;;;;;;;;;;354688;147;858386;-63
2021/05/13 01:58:34;;;;;;;3.72;1.48;;;;;;;;;;353122;150;860017;-64
2021/05/13 01:59:36;;;;;;;2.38;1.78;;;;;;;;;;352539;150;864725;-64
2021/05/13 02:00:38;;;;;;;5.71;1.94;;;;;;;;;;355065;149;864720;-64
2021/05/13 02:01:39;;;;;;;3.30;2.03;;;;;;;;;;355523;150;864861;-65
2021/05/13 02:02:44;;;;;;;3.08;1.79;;;;;;;;;;354425;147;857188;-64
2021/05/13 02:03:44;;;;;;;2.80;1.70;;;;;;;;;;355469;150;857192;-63
2021/05/13 02:04:46;;;;;;;3.63;2.01;;;;;;;;;;357105;150;859118;-63
2021/05/13 02:05:47;;;;;;;3.71;1.85;;;;;;;;;;356171;147;857527;-63
2021/05/13 02:06:49;;;;;;;6.86;1.90;;;;;;;;;;358568;150;857356;-63
2021/05/13 02:07:51;;;;;;;3.69;1.78;;;;;;;;;;357452;147;865008;-63
2021/05/13 02:08:52;;;;;;;5.52;1.69;;;;;;;;;;355255;150;857679;-64
2021/05/13 02:09:54;;;;;;;3.24;1.75;;;;;;;;;;357662;150;857833;-63
2021/05/13 02:10:56;;;;;;;3.62;1.87;;;;;;;;;;356277;147;859189;-63
2021/05/13 02:11:59;;;;;;;5.31;1.92;;;;;;;;;;352774;152;865816;-63
2021/05/13 02:13:00;;;;;;;1.94;1.76;;;;;;;;;;353215;150;857927;-63
2021/05/13 02:14:02;;;;;;;2.51;1.81;;;;;;;;;;355562;147;860571;-63
2021/05/13 02:15:08;;;;;;;3.46;1.80;;;;;;;;;;355425;150;857289;-63
2021/05/13 02:16:11;;;;;;;2.66;1.76;;;;;;;;;;352472;150;859280;-64
2021/05/13 02:17:12;;;;;;;2.51;1.70;;;;;;;;;;355778;150;859080;-64
2021/05/13 02:18:14;;;;;;;3.86;2.09;;;;;;;;;;357776;150;864780;-62
2021/05/13 02:19:15;;;;;;;2.71;1.66;;;;;;;;;;355045;149;857528;-62
2021/05/13 02:20:18;;;;;;;3.49;1.77;;;;;;;;;;357754;150;857390;-63
2021/05/13 02:21:20;;;;;;;2.68;1.80;;;;;;;;;;356936;150;857470;-62
2021/05/13 02:22:22;;;;;;;4.09;2.05;;;;;;;;;;354483;149;864689;-62
2021/05/13 02:23:23;;;;;;;3.58;2.09;;;;;;;;;;353587;150;859926;-62
2021/05/13 02:24:25;;;;;;;2.54;2.06;;;;;;;;;;354421;147;865649;-63
2021/05/13 02:25:28;;;;;;;2.20;1.94;;;;;;;;;;355709;149;859009;-62
2021/05/13 02:26:30;;;;;;;5.43;2.14;;;;;;;;;;352685;152;857511;-61
2021/05/13 02:27:31;;;;;;;2.13;1.70;;;;;;;;;;354479;147;864843;-61
2021/05/13 02:28:33;;;;;;;4.58;2.13;;;;;;;;;;354842;149;859194;-61
2021/05/13 02:29:35;;;;;;;5.34;1.92;;;;;;;;;;359057;147;857760;-61
2021/05/13 02:30:36;;;;;;;3.61;1.99;;;;;;;;;;357613;149;866662;-61
2021/05/13 02:31:38;;;;;;;3.00;1.92;;;;;;;;;;357261;149;865147;-61
2021/05/13 02:32:40;;;;;;;2.42;1.96;;;;;;;;;;357911;149;857365;-61
2021/05/13 02:33:41;;;;;;;3.86;2.07;;;;;;;;;;353254;150;857412;-61
2021/05/13 02:34:43;;;;;;;3.36;2.21;;;;;;;;;;355667;150;857509;-61
2021/05/13 02:35:44;;;;;;;2.55;2.14;;;;;;;;;;353554;147;857214;-62
2021/05/13 02:36:46;;;;;;;2.76;2.02;;;;;;;;;;358940;150;861347;-60
2021/05/13 02:37:48;;;;;;;4.72;2.55;;;;;;;;;;356035;150;864661;-60
2021/05/13 02:38:49;;;;;;;3.37;2.20;;;;;;;;;;355140;150;857453;-63
2021/05/13 02:39:51;;;;;;;2.19;1.81;;;;;;;;;;357125;150;857479;-61
2021/05/13 02:40:53;;;;;;;2.53;1.99;;;;;;;;;;355825;149;858871;-62
2021/05/13 02:41:55;;;;;;;5.69;2.46;;;;;;;;;;354828;150;857621;-65
2021/05/13 02:42:56;;;;;;;3.61;1.92;;;;;;;;;;356817;150;858856;-65
2021/05/13 02:43:58;;;;;;;5.15;2.32;;;;;;;;;;354897;149;858635;-64
2021/05/13 02:44:59;;;;;;;5.47;2.33;;;;;;;;;;356282;149;865772;-64
2021/05/13 02:46:01;;;;;;;4.31;2.61;;;;;;;;;;356929;149;864880;-63
2021/05/13 02:47:03;;;;;;;3.54;2.89;;;;;;;;;;354269;149;865352;-64
2021/05/13 02:48:05;;;;;;;6.50;3.06;;;;;;;;;;353955;150;857323;-63
2021/05/13 02:49:06;;;;;;;3.80;2.69;;;;;;;;;;357401;150;857285;-63
2021/05/13 02:50:10;;;;;;;5.21;3.07;;;;;;;;;;358498;150;857350;-64
2021/05/13 02:51:11;;;;;;;7.21;3.51;;;;;;;;;;357001;150;857391;-64
2021/05/13 02:52:13;;;;;;;4.98;3.36;;;;;;;;;;355703;149;860542;-64
2021/05/13 02:53:14;;;;;;;4.24;2.92;;;;;;;;;;356339;150;858450;-62
2021/05/13 02:54:16;;;;;;;6.68;3.34;;;;;;;;;;352934;150;860476;-62
2021/05/13 02:55:18;;;;;;;6.54;3.63;;;;;;;;;;353912;149;859118;-62
2021/05/13 02:56:20;;;;;;;6.58;3.76;;;;;;;;;;358358;150;861783;-63
2021/05/13 02:57:21;;;;;;;7.43;3.74;;;;;;;;;;354190;150;857973;-62
2021/05/13 02:58:23;;;;;;;6.26;3.71;;;;;;;;;;355303;149;858879;-62
2021/05/13 02:59:46;;;;;;;10.53;3.57;;;;;;;;;;357309;150;866082;-62
2021/05/13 03:00:53;;;;;;;5.68;3.36;;;;;;;;;;355794;149;859580;-64
2021/05/13 03:01:49;;;;;;;8.74;3.73;;;;;;;;;;355598;150;857759;-63
2021/05/13 03:02:51;;;;;;;5.46;3.86;;;;;;;;;;358660;150;860753;-62
2021/05/13 03:03:53;;;;;;;4.73;3.21;;;;;;;;;;355730;149;860931;-64
2021/05/13 03:04:54;;;;;;;5.68;3.25;;;;;;;;;;352744;150;857259;-64
2021/05/13 03:05:56;;;;;;;5.05;3.18;;;;;;;;;;357768;150;857247;-63
2021/05/13 03:06:58;;;;;;;7.04;3.35;;;;;;;;;;356522;147;860653;-63
2021/05/13 03:08:02;;;;;;;7.02;3.05;;;;;;;;;;356168;147;858131;-62
2021/05/13 03:09:03;;;;;;;4.94;3.17;;;;;;;;;;354512;150;857482;-64
2021/05/13 03:10:14;;;;;;;5.41;3.21;;;;;;;;;;356335;149;858623;-63
2021/05/13 03:11:10;;;;;;;7.52;2.83;;;;;;;;;;355122;150;858822;-63
2021/05/13 03:12:11;;;;;;;5.60;2.73;;;;;;;;;;353988;150;857536;-62
2021/05/13 03:13:20;;;;;;;3.57;2.83;;;;;;;;;;353945;149;859702;-64
2021/05/13 03:14:17;;;;;;;5.39;3.06;;;;;;;;;;355541;150;858783;-63
2021/05/13 03:15:18;;;;;;;5.31;3.33;;;;;;;;;;355987;147;857157;-64
2021/05/13 03:16:20;;;;;;;4.87;3.31;;;;;;;;;;353944;150;858826;-61
2021/05/13 03:17:22;;;;;;;6.55;3.29;;;;;;;;;;353856;150;864784;-64
2021/05/13 03:18:27;;;;;;;5.36;3.23;;;;;;;;;;354850;149;857805;-62
2021/05/13 03:19:38;;;;;;;6.43;3.34;;;;;;;;;;354579;149;857343;-64
2021/05/13 03:20:43;;;;;;;4.49;3.01;;;;;;;;;;353299;150;859137;-61
2021/05/13 03:21:46;;;;;;;7.04;3.63;;;;;;;;;;358258;149;857455;-60
2021/05/13 03:22:51;;;;;;;6.19;4.09;;;;;;;;;;356228;150;857759;-60
2021/05/13 03:25:11;;;;;;;4.24;2.96;;;;;;;;;;358452;150;857376;-61
2021/05/13 03:26:13;;;;;;;5.27;3.50;;;;;;;;;;353349;147;857856;-61
2021/05/13 03:28:28;;;;;;;3.82;3.03;;;;;;;;;;354368;150;867096;-61
2021/05/13 03:29:30;;;;;;;4.56;3.29;;;;;;;;;;354405;149;857414;-62
2021/05/13 03:30:33;;;;;;;5.66;3.41;;;;;;;;;;355740;147;857364;-62
2021/05/13 03:31:34;;;;;;;3.52;3.05;;;;;;;;;;356981;149;857167;-62
2021/05/13 03:32:36;;;;;;;4.59;2.83;;;;;;;;;;354214;150;857356;-62
2021/05/13 03:33:37;;;;;;;4.98;3.36;;;;;;;;;;357329;149;857482;-63
2021/05/13 03:34:39;;;;;;;5.69;3.13;;;;;;;;;;358869;149;857347;-64
2021/05/13 03:35:40;;;;;;;3.55;2.68;;;;;;;;;;357248;149;865833;-66
2021/05/13 03:36:42;;;;;;;5.38;2.94;;;;;;;;;;356756;149;863282;-65
2021/05/13 03:37:44;;;;;;;6.44;3.04;;;;;;;;;;358298;150;865264;-62
2021/05/13 03:38:45;;;;;;;4.67;2.74;;;;;;;;;;355740;149;857239;-66
2021/05/13 03:39:47;;;;;;;5.80;2.76;;;;;;;;;;355847;150;864735;-66
2021/05/13 03:40:49;;;;;;;4.61;2.89;;;;;;;;;;353572;147;857770;-64
2021/05/13 03:41:50;;;;;;;4.93;2.89;;;;;;;;;;357210;149;866588;-65
2021/05/13 03:42:52;;;;;;;5.59;2.62;;;;;;;;;;358062;149;865829;-67
2021/05/13 03:43:53;;;;;;;6.41;3.09;;;;;;;;;;353255;149;857596;-65
2021/05/13 03:44:55;;;;;;;7.71;3.10;;;;;;;;;;354820;149;859796;-63
2021/05/13 03:45:57;;;;;;;5.61;3.13;;;;;;;;;;353779;149;859294;-63
2021/05/13 03:46:58;;;;;;;7.75;3.31;;;;;;;;;;356547;149;857824;-62
2021/05/13 03:48:02;;;;;;;6.31;3.59;;;;;;;;;;357675;150;864893;-66
2021/05/13 03:49:04;;;;;;;9.22;3.26;;;;;;;;;;355756;149;857452;-65
2021/05/13 03:50:06;;;;;;;7.55;2.97;;;;;;;;;;346022;153;865367;-67
2021/05/13 03:51:08;;;;;;;6.87;3.42;;;;;;;12.36;94.13;40160.65;355378;151;858189;-64
2021/05/13 03:52:10;;;;;;;6.37;2.56;;;;;;;;;;356302;150;860412;-64
2021/05/13 03:53:11;;;;;;;5.11;2.81;;;;;;;;;;353142;149;866061;-66
2021/05/13 03:54:13;;;;;;;6.25;2.71;;;;;;;;;;358991;150;859117;-64
2021/05/13 03:55:14;;;;;;;4.11;2.64;;;;;;;;;;354583;149;858770;-60
2021/05/13 03:56:16;;;;;;;3.71;2.61;;;;;;;;;;354458;150;858890;-61
2021/05/13 03:57:18;;;;;;;4.04;2.89;;;;;;;;;;356911;150;864984;-61
2021/05/13 03:58:21;;;;;;;7.05;3.45;;;;;;;;;;355136;149;856776;-61
2021/05/13 03:59:23;;;;;;;7.27;2.72;;;;;;;;;;354749;150;857197;-63
2021/05/13 04:00:49;;;;;;;6.22;2.77;;;;;;;;;;356650;150;860677;-61
2021/05/13 04:03:07;;;;;;;2.93;2.54;;;;;;;;;;355425;150;859398;-63
2021/05/13 04:04:09;;;;;;;4.81;2.71;;;;;;;;;;356851;147;857609;-61
2021/05/13 04:05:12;;;;;;;3.57;2.70;;;;;;;;;;355790;147;866722;-62
2021/05/13 04:06:13;;;;;;;4.00;2.86;;;;;;;;;;355926;147;858354;-60
2021/05/13 04:07:15;;;;;;;5.28;3.01;;;;;;;;;;354846;149;860159;-60
2021/05/13 04:08:17;;;;;;;5.54;3.03;;;;;;;;;;354662;150;867169;-63
2021/05/13 04:09:18;;;;;;;6.67;2.93;;;;;;;;;;352469;148;866420;-61
2021/05/13 04:10:20;;;;;;;4.48;3.21;;;;;;;;;;349847;151;858746;-60
2021/05/13 04:11:21;;;;;;;5.72;2.94;;;;;;;;;;350907;149;867038;-61
2021/05/13 04:12:23;;;;;;;4.41;3.10;;;;;;;;;;352014;150;865133;-62
2021/05/13 04:13:26;;;;;;;4.96;3.19;;;;;;;;;;349923;151;857681;-62
2021/05/13 04:14:27;;;;;;;4.36;2.89;;;;;;;;;;350072;151;864821;-63
2021/05/13 04:15:29;;;;;;;7.60;3.04;;;;;;;;;;350854;150;858693;-62
2021/05/13 04:16:33;;;;;;;5.39;2.71;;;;;;;;;;351408;151;857723;-63
2021/05/13 04:17:35;;;;;;;7.67;4.06;;;;;;;;;;349598;150;857255;-65
2021/05/13 04:18:36;;;;;;;3.72;3.04;;;;;;;;;;351571;149;857360;-64
2021/05/13 04:19:38;;;;;;;4.91;2.92;;;;;;;;;;353588;151;857305;-63
2021/05/13 04:20:44;;;;;;;4.91;3.31;;;;;;;;;;350186;150;859120;-63
2021/05/13 04:21:44;;;;;;;7.33;3.16;;;;;;;;;;350937;148;865852;-61
2021/05/13 04:22:46;;;;;;;4.34;3.13;;;;;;;;;;351749;148;857216;-66
2021/05/13 04:23:47;;;;;;;7.79;3.16;;;;;;;;;;351381;150;857405;-62
2021/05/13 04:24:49;;;;;;;4.14;3.16;;;;;;;;;;348917;150;859385;-63
2021/05/13 04:25:51;;;;;;;5.04;2.96;;;;;;;;;;351296;151;864998;-65
2021/05/13 04:26:52;;;;;;;4.54;3.09;;;;;;;;;;350710;148;859229;-62
2021/05/13 04:27:54;;;;;;;4.21;3.01;;;;;;;;;;352343;148;865844;-60
2021/05/13 04:28:55;;;;;;;4.77;3.21;;;;;;;;;;355646;148;858634;-63
2021/05/13 04:29:57;;;;;;;3.91;3.09;;;;;;;;;;349935;150;858062;-63
2021/05/13 04:30:59;;;;;;;4.22;2.98;;;;;;;;;;353978;150;857340;-61
2021/05/13 04:32:01;;;;;;;5.72;3.15;;;;;;;;;;352182;148;864806;-64
2021/05/13 04:33:02;;;;;;;10.09;3.77;;;;;;;;;;350667;151;857498;-64
2021/05/13 04:34:04;;;;;;;7.54;3.21;;;;;;;;;;350297;151;857410;-63
2021/05/13 04:35:06;;;;;;;6.49;3.25;;;;;;;;;;352259;148;866762;-60
2021/05/13 04:36:09;;;;;;;4.82;3.19;;;;;;;;;;353328;150;865534;-62
2021/05/13 04:37:10;;;;;;;5.90;3.19;;;;;;;;;;351050;149;858074;-59
2021/05/13 04:38:15;;;;;;;6.34;3.60;;;;;;;;;;350033;150;865039;-61
2021/05/13 04:39:15;;;;;;;3.92;3.41;;;;;;;;;;351809;148;858340;-60
2021/05/13 04:40:17;;;;;;;6.81;3.46;;;;;;;;;;353339;149;859127;-61
2021/05/13 04:41:19;;;;;;;7.05;3.74;;;;;;;;;;353924;148;857333;-62
2021/05/13 04:42:20;;;;;;;5.19;3.56;;;;;;;;;;351706;148;857329;-60
2021/05/13 04:43:22;;;;;;;3.93;3.04;;;;;;;;;;350654;151;857277;-58
2021/05/13 04:44:24;;;;;;;5.56;3.89;;;;;;;;;;353347;148;857198;-60
2021/05/13 04:45:26;;;;;;;4.43;3.27;;;;;;;;;;353335;148;865597;-60
2021/05/13 04:46:32;;;;;;;6.57;3.68;;;;;;;;;;351559;150;866257;-59
2021/05/13 04:49:52;;;;;;;4.11;3.20;;;;;;;;;;352608;148;859888;-58
2021/05/13 04:50:55;;;;;;;4.55;2.66;;;;;;;;;;352293;148;859340;-58
2021/05/13 04:51:56;;;;;;;4.83;3.40;;;;;;;;;;352742;148;859101;-59
2021/05/13 04:53:00;;;;;;;6.71;3.61;;;;;;;;;;351986;148;857394;-58
2021/05/13 04:54:02;;;;;;;4.86;3.31;;;;;;;;;;352159;148;864853;-59
2021/05/13 04:55:04;;;;;;;3.95;2.69;;;;;;;;;;351417;148;864807;-60
2021/05/13 04:56:06;;;;;;;3.87;2.93;;;;;;;;;;352075;148;859407;-60
2021/05/13 04:57:08;;;;;;;6.91;3.03;;;;;;;;;;352225;148;865533;-59
2021/05/13 04:58:09;;;;;;;5.78;2.73;;;;;;;;;;352284;148;864931;-59
2021/05/13 04:59:11;;;;;;;5.21;3.65;;;;;;;;;;350801;148;865145;-59
2021/05/13 05:00:15;;;;;;;5.29;3.01;;;;;;;;;;351310;148;865590;-60
2021/05/13 05:01:16;;;;;;;3.44;2.77;;;;;;;;;;350977;148;858036;-59
2021/05/13 05:02:18;;;;;;;4.67;2.78;;;;;;;;;;354413;148;861118;-58
2021/05/13 05:03:20;;;;;;;4.68;2.97;;;;;;;;;;350837;148;864888;-59
2021/05/13 05:04:21;;;;;;;5.79;3.91;;;;;;;;;;352733;148;857349;-60
2021/05/13 05:05:23;;;;;;;6.64;3.98;;;;;;;;;;356846;148;864750;-59
2021/05/13 05:06:26;;;;;;;5.16;3.68;;;;;;;;;;351720;148;857360;-59
2021/05/13 05:07:27;;;;;;;6.62;3.85;;;;;;;;;;352926;148;860463;-59
2021/05/13 05:08:29;;;;;;;8.56;3.98;;;;;;;;;;353410;148;857325;-59
2021/05/13 05:09:31;;;;;;;5.01;3.79;;;;;;;;;;357063;146;866018;-59
2021/05/13 05:10:34;;;;;;;7.16;4.26;;;;;;;;;;357689;147;858297;-59
2021/05/13 05:11:35;;;;;;;5.88;3.50;;;;;;;;;;357603;150;857494;-60
2021/05/13 05:12:37;;;;;;;4.06;3.32;;;;;;;;;;357235;147;859732;-60
2021/05/13 05:13:38;;;;;;;5.24;3.37;;;;;;;;;;358914;147;860140;-60
2021/05/13 05:14:40;;;;;;;5.53;3.48;;;;;;;;;;357724;147;857948;-60
2021/05/13 05:15:42;;;;;;;4.83;3.03;;;;;;;;;;354722;147;866308;-61
2021/05/13 05:16:44;;;;;;;7.44;3.26;;;;;;;;;;358141;147;859627;-61
2021/05/13 05:17:45;;;;;;;5.91;3.25;;;;;;;;;;350234;152;865079;-61
2021/05/13 05:18:47;;;;;;;5.47;3.34;;;;;;;;;;359059;147;864885;-61
2021/05/13 05:19:48;;;;;;;6.03;3.17;;;;;;;;;;359632;147;857330;-61
2021/05/13 05:20:50;;;;;;;8.79;3.44;;;;;;;;;;355279;147;857391;-61
2021/05/13 05:21:52;;;;;;;8.93;3.67;;;;;;;;;;355226;150;864985;-61
2021/05/13 05:22:54;;;;;;;5.58;3.35;;;;;;;;;;357604;150;864902;-61
2021/05/13 05:23:55;;;;;;;4.79;2.70;;;;;;;;;;356022;147;866696;-61
2021/05/13 05:24:57;;;;;;;7.11;3.16;;;;;;;;;;360257;147;859006;-60
2021/05/13 05:25:59;;;;;;;4.93;3.46;;;;;;;;;;359370;147;866767;-61
2021/05/13 05:27:01;;;;;;;5.97;3.35;;;;;;;;;;356418;147;860092;-61
2021/05/13 05:28:03;;;;;;;5.36;3.62;;;;;;;;;;354300;147;858548;-60
2021/05/13 05:29:04;;;;;;;10.63;3.46;;;;;;;;;;345453;153;865579;-62
2021/05/13 05:30:07;;;;;;;4.55;3.28;;;;;;;;;;359931;147;857329;-63
2021/05/13 05:31:08;;;;;;;5.64;3.45;;;;;;;;;;356290;147;857855;-60
2021/05/13 05:32:10;;;;;;;5.21;3.48;;;;;;;;;;353814;149;857422;-62
2021/05/13 05:33:12;;;;;;;4.93;2.56;;;;;;;;;;357031;149;857545;-59
2021/05/13 05:34:14;;;;;;;8.00;3.38;;;;;;;;;;355256;149;864915;-60
2021/05/13 05:35:15;;;;;;;6.30;3.00;;;;;;;;;;355251;147;858058;-60
2021/05/13 05:36:17;;;;;;;4.91;3.50;;;;;;;;;;357805;147;857350;-61
2021/05/13 05:37:19;;;;;;;5.86;3.17;;;;;;;;;;354593;150;864073;-62
2021/05/13 05:38:20;;;;;;;4.19;3.21;;;;;;;;;;357099;147;864969;-62
2021/05/13 05:39:22;;;;;;;6.29;3.16;;;;;;;;;;355327;147;866607;-61
2021/05/13 05:40:23;;;;;;;4.65;2.89;;;;;;;;;;357606;147;859166;-59
2021/05/13 05:41:25;;;;;;;6.97;3.38;;;;;;;;;;356837;149;865674;-60
2021/05/13 05:42:28;;;;;;;7.36;3.44;;;;;;;;;;354984;150;858768;-62
2021/05/13 05:43:30;;;;;;;5.94;3.25;;;;;;;;;;354523;149;865011;-65
2021/05/13 05:44:31;;;;;;;8.84;3.06;;;;;;;;;;357468;150;857756;-62
2021/05/13 05:45:33;;;;;;;7.79;2.94;;;;;;;;;;356299;147;859845;-62
2021/05/13 05:46:35;;;;;;;5.98;2.86;;;;;;;;;;353756;149;859805;-62
2021/05/13 05:47:36;;;;;;;6.53;2.96;;;;;;;;;;354075;150;864687;-61
2021/05/13 05:48:38;;;;;;;4.84;2.76;;;;;;;;;;358405;150;866647;-62
2021/05/13 05:49:39;;;;;;;4.19;2.74;;;;;;;;;;355552;150;857374;-60
2021/05/13 05:50:41;;;;;;;4.24;2.43;;;;;;;;;;356238;150;857819;-62
2021/05/13 05:51:43;;;;;;;5.53;2.76;;;;;;;;;;356051;149;866425;-62
2021/05/13 05:52:45;;;;;;;3.84;2.91;;;;;;;;;;353397;149;859907;-62
2021/05/13 05:53:47;;;;;;;3.90;2.83;;;;;;;;;;354934;150;866081;-63
2021/05/13 05:54:48;;;;;;;5.04;3.39;;;;;;;;;;355860;149;859419;-62
2021/05/13 05:55:50;;;;;;;7.56;3.21;;;;;;;;;;357804;150;857463;-62
2021/05/13 05:56:52;;;;;;;4.55;2.96;;;;;;;;;;358889;150;857446;-61
2021/05/13 05:57:53;;;;;;;5.73;2.71;;;;;;;;;;353995;149;858765;-61
2021/05/13 05:58:55;;;;;;;3.47;2.44;;;;;;;;;;352695;149;857422;-61
2021/05/13 05:59:58;;;;;;;4.24;2.74;;;;;;;;;;357639;150;859824;-62
2021/05/13 06:01:00;;;;;;;6.11;3.12;;;;;;;;;;353170;149;859135;-62
2021/05/13 06:02:01;;;;;;;4.58;3.21;;;;;;;;;;354958;150;856418;-61
2021/05/13 06:03:03;;;;;;;3.10;2.02;;;;;;;;;;354528;150;857345;-64
2021/05/13 06:04:05;;;;;;;4.12;2.78;;;;;;;;;;355367;149;856139;-64
2021/05/13 06:05:07;;;;;;;6.52;2.71;;;;;;;;;;357048;150;863655;-61
2021/05/13 06:06:10;;;;;;;3.91;2.62;;;;;;;;;;356619;149;857363;-62
2021/05/13 06:07:12;;;;;;;6.10;2.99;;;;;;;;;;352903;152;863834;-63
2021/05/13 06:08:13;;;;;;;5.79;2.23;;;;;;;;;;357134;150;863760;-64
2021/05/13 06:09:15;;;;;;;8.84;2.84;;;;;;;;;;355643;149;863942;-63
2021/05/13 06:10:17;;;;;;;2.34;1.99;;;;;;;;;;353058;150;856744;-61
2021/05/13 06:11:18;;;;;;;4.27;2.96;;;;;;;;;;353174;149;856337;-62
2021/05/13 06:14:03;;;;;;;4.91;2.53;;;;;;;14.89;47.53;99237.77;371945;142;966410;-62
2021/05/13 06:15:06;;;;;;;3.34;2.43;;;;;;;14.82;47.44;99243.25;365811;145;864782;-62
2021/05/13 06:16:10;;;;;;;5.04;2.24;;;;;;;14.82;47.00;99241.52;366819;145;857374;-62
2021/05/13 06:17:12;;;;;;;3.60;1.62;;;;;;;14.83;46.75;99240.61;363204;145;865807;-61
2021/05/13 06:18:14;;;;;;;2.85;2.32;;;;;;;14.85;47.97;99232.75;364899;145;858271;-61
2021/05/13 06:19:18;;;;;;;2.50;2.02;;;;;;;14.87;46.05;99236.15;362412;147;864761;-63